Time;durP1;ratioP1;P1;durP2;ratioP2;P2;SDS_P1;SDS_P2;PMS_P1;PMS_P2;Temp;Humidity;BMP_temperature;BMP_pressure;BME280_temperature;BME280_humidity;BME280_pressure;Samples;Min_cycle;Max_cycle;Signal;HPM_P1;HPM_P2
2023/09/07 00:00:53;;;;;;;;;;;;;;;22.21;70.64;97519.70;595376;238;67070;-67
2023/09/07 00:03:20;;;;;;;;;;;;;;;22.21;70.61;97523.20;595366;238;66961;-67
2023/09/07 00:05:48;;;;;;;;;;;;;;;22.21;70.49;97528.55;595397;238;63075;-67
2023/09/07 00:08:15;;;;;;;;;;;;;;;22.21;69.94;97519.70;595446;238;64886;-67
2023/09/07 00:10:43;;;;;;;;;;;;;;;22.21;69.56;97531.23;595391;238;64731;-67
2023/09/07 00:13:10;;;;;;;;;;;;;;;22.20;69.59;97529.61;595377;238;62980;-67
2023/09/07 00:15:38;;;;;;;;;;;;;;;22.20;69.71;97534.96;596734;237;65215;-67
2023/09/07 00:18:06;;;;;;;;;;;;;;;22.21;70.03;97538.44;599225;237;64946;-68
2023/09/07 00:20:34;;;;;;;;;;;;;;;22.21;70.33;97538.44;599305;237;64848;-67
2023/09/07 00:23:01;;;;;;;;;;;;;;;22.21;70.42;97536.59;599321;237;64897;-65
2023/09/07 00:25:29;;;;;;;;;;;;;;;22.21;70.36;97530.41;599242;237;64811;-65
2023/09/07 00:27:56;;;;;;;;;;;;;;;22.20;69.84;97534.96;599268;237;65285;-65
2023/09/07 00:30:24;;;;;;;;;;;;;;;22.21;69.84;97527.73;599240;237;67372;-65
2023/09/07 00:32:52;;;;;;;;;;;;;;;22.20;69.49;97524.25;599270;237;67492;-65
2023/09/07 00:35:21;;;;;;;;;;;;;;;22.19;69.54;97517.30;599294;237;62584;-68
2023/09/07 00:37:48;;;;;;;;;;;;;;;22.21;70.12;97523.20;599268;237;64904;-70
2023/09/07 00:40:16;;;;;;;;;;;;;;;22.21;70.27;97507.14;599229;237;65124;-71
2023/09/07 00:42:43;;;;;;;;;;;;;;;22.20;70.46;97505.52;599259;237;62911;-71
2023/09/07 00:45:11;;;;;;;;;;;;;;;22.20;69.75;97497.48;599232;237;68182;-70
2023/09/07 00:47:39;;;;;;;;;;;;;;;22.20;70.27;97497.48;599291;237;64895;-70
2023/09/07 00:50:07;;;;;;;;;;;;;;;22.20;70.34;97500.16;599267;237;65783;-71
2023/09/07 00:52:39;;;;;;;;;;;;;;;22.20;70.44;97507.39;599260;237;67258;-68
2023/09/07 00:55:06;;;;;;;;;;;;;;;22.20;70.43;97507.39;599217;237;64588;-69
2023/09/07 00:57:33;;;;;;;;;;;;;;;22.18;69.59;97505.00;599260;237;65111;-69
2023/09/07 01:00:03;;;;;;;;;;;;;;;22.19;69.21;97495.89;592989;237;65939;-69
2023/09/07 01:02:31;;;;;;;;;;;;;;;22.19;69.52;97495.89;599230;237;65027;-69
2023/09/07 01:04:59;;;;;;;;;;;;;;;22.20;69.66;97496.69;599183;237;65707;-69
2023/09/07 01:07:40;;;;;;;;;;;;;;;22.18;69.78;97494.30;599272;237;65004;-69
2023/09/07 01:10:08;;;;;;;;;;;;;;;22.20;69.96;97499.36;599213;237;64604;-69
2023/09/07 01:12:36;;;;;;;;;;;;;;;22.19;70.05;97495.89;599310;237;65123;-69
2023/09/07 01:15:04;;;;;;;;;;;;;;;22.19;69.95;97489.73;599209;237;64876;-69
2023/09/07 01:17:34;;;;;;;;;;;;;;;22.18;69.93;97486.27;599267;237;65077;-69
2023/09/07 01:20:05;;;;;;;;;;;;;;;22.19;70.03;97493.21;599275;237;65227;-69
2023/09/07 01:22:33;;;;;;;;;;;;;;;22.18;69.62;97496.97;599268;237;68006;-69
2023/09/07 01:25:01;;;;;;;;;;;;;;;22.18;69.14;97499.64;599244;237;67251;-70
2023/09/07 01:27:29;;;;;;;;;;;;;;;22.17;69.10;97489.95;599298;237;63692;-69
2023/09/07 01:29:58;;;;;;;;;;;;;;;22.19;69.45;97495.09;599243;237;67492;-69
2023/09/07 01:32:30;;;;;;;;;;;;;;;22.18;69.87;97491.61;599229;237;67024;-70
2023/09/07 01:34:58;;;;;;;;;;;;;;;22.19;69.92;97495.09;599112;237;63011;-69
2023/09/07 01:37:26;;;;;;;;;;;;;;;22.18;69.32;97499.64;599244;237;64622;-66
2023/09/07 01:39:54;;;;;;;;;;;;;;;22.17;69.74;97496.11;599284;237;67005;-66
2023/09/07 01:42:22;;;;;;;;;;;;;;;22.17;69.71;97492.63;599267;237;65440;-66
2023/09/07 01:44:49;;;;;;;;;;;;;;;22.17;69.08;97495.31;599269;237;67409;-66
2023/09/07 01:47:17;;;;;;;;;;;;;;;22.17;69.17;97492.63;599268;237;66853;-66
2023/09/07 01:49:44;;;;;;;;;;;;;;;22.17;69.21;97492.63;599215;237;65227;-69
2023/09/07 01:52:12;;;;;;;;;;;;;;;22.18;69.28;97491.61;599308;237;67306;-69
2023/09/07 01:54:39;;;;;;;;;;;;;;;22.17;69.54;97496.11;599222;237;67408;-69
2023/09/07 01:57:07;;;;;;;;;;;;;;;22.18;69.46;97502.33;599254;237;62839;-69
2023/09/07 01:59:34;;;;;;;;;;;;;;;22.18;69.65;97499.64;599247;237;67402;-70
2023/09/07 02:02:02;;;;;;;;;;;;;;;22.17;69.37;97504.14;599255;237;67035;-70
2023/09/07 02:04:30;;;;;;;;;;;;;;;22.17;69.49;97501.47;599240;237;62849;-69
2023/09/07 02:06:57;;;;;;;;;;;;;;;22.17;70.21;97498.78;599292;237;67328;-69
2023/09/07 02:09:25;;;;;;;;;;;;;;;22.17;69.51;97497.98;599232;237;65756;-69
2023/09/07 02:11:52;;;;;;;;;;;;;;;22.17;69.47;97503.34;599289;237;65042;-69
2023/09/07 02:14:20;;;;;;;;;;;;;;;22.16;69.42;97502.55;599246;237;64326;-69
2023/09/07 02:16:47;;;;;;;;;;;;;;;22.17;69.36;97511.38;595928;237;67188;-66
2023/09/07 02:19:15;;;;;;;;;;;;;;;22.16;69.22;97502.55;595415;238;62672;-69
2023/09/07 02:21:44;;;;;;;;;;;;;;;22.16;69.21;97513.25;595408;238;67477;-66
2023/09/07 02:24:11;;;;;;;;;;;;;;;22.16;69.77;97515.93;595397;238;65704;-66
2023/09/07 02:26:44;;;;;;;;;;;;;;;22.16;69.29;97515.13;595395;238;66136;-66
2023/09/07 02:29:09;;;;;;;;;;;;;;;22.15;69.53;97511.66;595222;238;64741;-66
2023/09/07 02:31:36;;;;;;;;;;;;;;;22.16;69.58;97518.61;595420;238;66918;-66
2023/09/07 02:34:04;;;;;;;;;;;;;;;22.16;69.04;97520.48;595404;238;65176;-66
2023/09/07 02:36:32;;;;;;;;;;;;;;;22.17;69.06;97519.41;595439;238;67382;-66
2023/09/07 02:39:00;;;;;;;;;;;;;;;22.16;69.05;97517.81;595423;238;64547;-66
2023/09/07 02:41:27;;;;;;;;;;;;;;;22.16;69.09;97520.48;595405;238;65192;-66
2023/09/07 02:43:55;;;;;;;;;;;;;;;22.16;69.40;97520.48;595399;238;66923;-66
2023/09/07 02:46:22;;;;;;;;;;;;;;;22.16;69.18;97523.16;595425;238;64667;-67
2023/09/07 02:48:50;;;;;;;;;;;;;;;22.16;69.58;97523.16;595408;238;65160;-66
2023/09/07 02:51:18;;;;;;;;;;;;;;;22.15;69.13;97517.02;595412;238;66916;-67
2023/09/07 02:53:45;;;;;;;;;;;;;;;22.15;68.95;97524.22;595392;238;66698;-66
2023/09/07 02:56:13;;;;;;;;;;;;;;;22.15;69.60;97524.22;595406;238;65878;-66
2023/09/07 02:58:40;;;;;;;;;;;;;;;22.15;69.12;97532.25;595430;238;67047;-66
2023/09/07 03:01:12;;;;;;;;;;;;;;;22.15;69.47;97533.07;595415;238;64712;-67
2023/09/07 03:03:41;;;;;;;;;;;;;;;22.15;69.21;97529.56;595405;238;62982;-66
2023/09/07 03:06:09;;;;;;;;;;;;;;;22.15;68.87;97529.56;595375;238;67986;-66
2023/09/07 03:08:37;;;;;;;;;;;;;;;22.14;69.08;97518.06;595348;238;67443;-66
2023/09/07 03:11:05;;;;;;;;;;;;;;;22.16;69.75;97525.84;595412;238;62948;-70
2023/09/07 03:13:33;;;;;;;;;;;;;;;22.15;69.57;97526.89;595384;238;67545;-70
2023/09/07 03:16:01;;;;;;;;;;;;;;;22.15;69.41;97526.89;597351;237;67026;-70
2023/09/07 03:18:30;;;;;;;;;;;;;;;22.14;69.75;97526.09;599255;237;62604;-70
2023/09/07 03:20:59;;;;;;;;;;;;;;;22.15;69.52;97537.59;599247;237;67234;-70
2023/09/07 03:23:29;;;;;;;;;;;;;;;22.14;69.09;97536.00;599250;237;67696;-70
2023/09/07 03:25:57;;;;;;;;;;;;;;;22.15;69.00;97534.92;599256;237;65163;-69
2023/09/07 03:28:26;;;;;;;;;;;;;;;22.14;69.07;97536.80;593063;237;64741;-69
2023/09/07 03:30:55;;;;;;;;;;;;;;;22.14;69.03;97546.71;599226;237;67485;-70
2023/09/07 03:33:23;;;;;;;;;;;;;;;22.14;69.32;97536.00;599224;237;62968;-70
2023/09/07 03:35:51;;;;;;;;;;;;;;;22.14;69.68;97538.68;599235;237;67983;-70
2023/09/07 03:38:19;;;;;;;;;;;;;;;22.12;69.75;97541.61;599285;237;67111;-69
2023/09/07 03:40:47;;;;;;;;;;;;;;;22.14;69.98;97541.36;599250;237;62791;-69
2023/09/07 03:43:15;;;;;;;;;;;;;;;22.14;70.15;97544.03;599235;237;67640;-69
2023/09/07 03:45:42;;;;;;;;;;;;;;;22.13;69.21;97542.44;599221;237;67639;-70
2023/09/07 03:48:10;;;;;;;;;;;;;;;22.12;69.51;97543.48;599246;237;63650;-70
2023/09/07 03:50:38;;;;;;;;;;;;;;;22.13;69.69;97545.11;599270;237;67990;-69
2023/09/07 03:53:06;;;;;;;;;;;;;;;22.12;69.37;97541.61;599244;237;67360;-69
2023/09/07 03:55:35;;;;;;;;;;;;;;;22.11;69.12;97542.69;592914;237;62210;-69
2023/09/07 03:58:03;;;;;;;;;;;;;;;22.12;69.59;97546.16;599018;237;64982;-70
2023/09/07 04:00:30;;;;;;;;;;;;;;;22.13;69.71;97550.47;599245;237;67017;-70
2023/09/07 04:02:58;;;;;;;;;;;;;;;22.12;70.02;97548.84;599278;237;62963;-69
2023/09/07 04:05:26;;;;;;;;;;;;;;;22.12;70.18;97546.96;599240;237;68272;-70
2023/09/07 04:07:53;;;;;;;;;;;;;;;22.12;70.13;97554.99;599233;237;67080;-70
2023/09/07 04:10:21;;;;;;;;;;;;;;;22.11;69.59;97550.72;599237;237;65071;-69
2023/09/07 04:12:48;;;;;;;;;;;;;;;22.13;69.50;97553.14;599234;237;64845;-70
2023/09/07 04:15:16;;;;;;;;;;;;;;;22.12;69.17;97560.34;598446;237;65287;-69
2023/09/07 04:17:43;;;;;;;;;;;;;;;22.12;69.47;97560.34;595357;238;63820;-70
2023/09/07 04:20:15;;;;;;;;;;;;;;;22.11;69.41;97565.98;595386;238;66832;-69
2023/09/07 04:22:42;;;;;;;;;;;;;;;22.12;68.96;97564.91;595367;238;64846;-71
2023/09/07 04:25:10;;;;;;;;;;;;;;;22.11;68.75;97565.98;595359;238;66078;-71
2023/09/07 04:27:38;;;;;;;;;;;;;;;22.11;69.02;97564.10;595369;238;65283;-71
2023/09/07 04:30:06;;;;;;;;;;;;;;;22.11;69.32;97568.66;595419;238;67518;-70
2023/09/07 04:32:33;;;;;;;;;;;;;;;22.11;69.50;97561.42;595387;238;65073;-71
2023/09/07 04:35:01;;;;;;;;;;;;;;;22.11;69.28;97565.98;595370;238;64863;-70
2023/09/07 04:37:29;;;;;;;;;;;;;;;22.10;69.12;97570.53;595392;238;67220;-71
2023/09/07 04:39:56;;;;;;;;;;;;;;;22.10;68.20;97572.41;595405;238;64891;-71
2023/09/07 04:42:24;;;;;;;;;;;;;;;22.12;69.39;97580.96;595429;238;67416;-70
2023/09/07 04:44:52;;;;;;;;;;;;;;;22.12;69.42;97572.93;595342;238;64948;-70
2023/09/07 04:47:19;;;;;;;;;;;;;;;22.10;69.49;97573.21;595348;238;65087;-71
2023/09/07 04:49:55;;;;;;;;;;;;;;;22.10;69.26;97572.41;595374;238;67367;-71
2023/09/07 04:52:21;;;;;;;;;;;;;;;22.10;69.41;97580.45;595320;238;65626;-70
2023/09/07 04:54:49;;;;;;;;;;;;;;;22.10;68.88;97575.89;595418;238;63042;-70
2023/09/07 04:57:22;;;;;;;;;;;;;;;22.10;69.03;97583.92;595326;238;67744;-67
2023/09/07 04:59:47;;;;;;;;;;;;;;;22.10;69.43;97589.27;595257;238;65770;-67
2023/09/07 05:02:15;;;;;;;;;;;;;;;22.10;68.89;97588.47;595381;238;65177;-67
2023/09/07 05:04:43;;;;;;;;;;;;;;;22.10;68.29;97588.47;595409;238;67846;-67
2023/09/07 05:07:12;;;;;;;;;;;;;;;22.10;67.99;97589.27;595443;238;65735;-67
2023/09/07 05:09:39;;;;;;;;;;;;;;;22.09;68.57;97584.97;595431;238;63833;-67
2023/09/07 05:12:07;;;;;;;;;;;;;;;22.09;69.73;97590.32;595370;238;64883;-67
2023/09/07 05:14:35;;;;;;;;;;;;;;;22.11;70.52;97595.42;595396;238;67115;-67
2023/09/07 05:17:02;;;;;;;;;;;;;;;22.10;69.94;97583.92;599026;237;63743;-67
2023/09/07 05:19:30;;;;;;;;;;;;;;;22.09;69.43;97584.17;599236;237;68027;-67
2023/09/07 05:21:58;;;;;;;;;;;;;;;22.10;69.02;97583.13;599307;237;67011;-67
2023/09/07 05:24:26;;;;;;;;;;;;;;;22.10;68.43;97589.27;599237;237;65647;-67
2023/09/07 05:26:53;;;;;;;;;;;;;;;22.10;69.06;97591.16;599256;237;65128;-67
2023/09/07 05:29:22;;;;;;;;;;;;;;;22.09;69.12;97584.97;599280;237;64675;-67
2023/09/07 05:31:50;;;;;;;;;;;;;;;22.09;68.66;97590.32;599247;237;65026;-67
2023/09/07 05:34:17;;;;;;;;;;;;;;;22.10;68.55;97583.13;592992;237;68679;-67
2023/09/07 05:36:45;;;;;;;;;;;;;;;22.11;68.74;97584.72;599200;237;67384;-67
2023/09/07 05:39:13;;;;;;;;;;;;;;;22.09;68.94;97587.64;599239;237;65217;-67
2023/09/07 05:41:40;;;;;;;;;;;;;;;22.10;68.94;97588.47;599258;237;68020;-67
2023/09/07 05:44:08;;;;;;;;;;;;;;;22.09;68.93;97587.64;599265;237;64468;-67
2023/09/07 05:46:36;;;;;;;;;;;;;;;22.09;68.86;97586.84;599269;237;65751;-67
2023/09/07 05:49:03;;;;;;;;;;;;;;;22.09;68.82;97589.52;599272;237;67104;-67
2023/09/07 05:51:32;;;;;;;;;;;;;;;22.09;68.86;97584.17;599222;237;67654;-67
2023/09/07 05:53:59;;;;;;;;;;;;;;;22.09;68.79;97582.29;599274;237;62948;-67
2023/09/07 05:56:27;;;;;;;;;;;;;;;22.09;68.65;97582.29;599261;237;67654;-67
2023/09/07 05:58:55;;;;;;;;;;;;;;;22.10;68.69;97585.80;599315;237;65083;-67
2023/09/07 06:01:22;;;;;;;;;;;;;;;22.09;68.82;97584.17;599228;237;65058;-67
2023/09/07 06:03:51;;;;;;;;;;;;;;;22.09;68.65;97592.20;599153;237;68051;-67
2023/09/07 06:06:19;;;;;;;;;;;;;;;22.09;68.84;97592.20;599262;237;65745;-67
2023/09/07 06:08:46;;;;;;;;;;;;;;;22.09;68.67;97597.55;598564;237;65099;-71
2023/09/07 06:11:14;;;;;;;;;;;;;;;22.09;68.68;97593.00;599244;237;67151;-67
2023/09/07 06:13:41;;;;;;;;;;;;;;;22.09;68.79;97598.35;599296;237;67021;-67
2023/09/07 06:16:09;;;;;;;;;;;;;;;22.09;68.70;97589.52;599038;237;65767;-67
2023/09/07 06:18:37;;;;;;;;;;;;;;;22.08;69.08;97588.72;599077;237;67176;-67
2023/09/07 06:21:05;;;;;;;;;;;;;;;22.07;68.49;97589.80;599257;237;64964;-67
2023/09/07 06:23:33;;;;;;;;;;;;;;;22.08;68.49;97591.41;599168;237;65093;-68
2023/09/07 06:26:01;;;;;;;;;;;;;;;22.09;68.69;97598.35;599271;237;67913;-67
2023/09/07 06:28:28;;;;;;;;;;;;;;;22.08;69.67;97590.60;599220;237;67027;-67
2023/09/07 06:30:56;;;;;;;;;;;;;;;22.08;70.00;97590.60;599152;237;63057;-66
2023/09/07 06:33:23;;;;;;;;;;;;;;;22.08;70.10;97590.60;599244;237;67243;-66
2023/09/07 06:35:51;;;;;;;;;;;;;;;22.08;69.60;97594.08;599195;237;64549;-66
2023/09/07 06:38:19;;;;;;;;;;;;;;;22.07;67.84;97600.51;599251;237;65229;-66
2023/09/07 06:40:49;;;;;;;;;;;;;;;22.09;70.08;97592.20;599274;237;65914;-66
2023/09/07 06:43:18;;;;;;;;;;;;;;;22.09;68.93;97592.20;599168;237;67007;-66
2023/09/07 06:45:46;;;;;;;;;;;;;;;22.10;68.71;97585.80;599251;237;65036;-66
2023/09/07 06:48:14;;;;;;;;;;;;;;;22.10;68.67;97596.50;599234;237;67626;-65
2023/09/07 06:50:42;;;;;;;;;;;;;;;22.11;69.34;97588.19;599204;237;65729;-66
2023/09/07 06:53:10;;;;;;;;;;;;;;;22.12;69.73;97602.38;599207;237;65005;-67
2023/09/07 06:55:38;;;;;;;;;;;;;;;22.11;69.36;97595.42;599189;237;64310;-67
2023/09/07 06:58:06;;;;;;;;;;;;;;;22.12;68.96;97597.02;599141;237;67303;-67
2023/09/07 07:00:34;;;;;;;;;;;;;;;22.12;69.12;97597.02;599249;237;65130;-66
2023/09/07 07:03:02;;;;;;;;;;;;;;;22.14;69.50;97594.89;599294;237;64781;-65
2023/09/07 07:05:30;;;;;;;;;;;;;;;22.13;69.41;97596.77;599106;237;67461;-67
2023/09/07 07:07:59;;;;;;;;;;;;;;;22.13;66.11;97594.09;603964;234;63126;-66
2023/09/07 07:10:26;;;;;;;;;;;;;;;22.17;68.40;97591.69;606000;234;66645;-67
2023/09/07 07:12:54;;;;;;;;;;;;;;;22.18;68.52;97593.34;605895;234;65685;-66
2023/09/07 07:15:22;;;;;;;;;;;;;;;22.19;68.39;97602.17;604636;234;65321;-66
2023/09/07 07:17:49;;;;;;;;;;;;;;;22.19;68.93;97592.27;602321;235;64851;-66
2023/09/07 07:20:17;;;;;;;;;;;;;;;22.20;68.99;97593.86;603698;235;67828;-66
2023/09/07 07:22:45;;;;;;;;;;;;;;;22.21;68.48;97595.48;603721;235;65172;-66
2023/09/07 07:25:14;;;;;;;;;;;;;;;22.22;68.37;97596.28;603673;235;43214;-66
2023/09/07 07:27:41;;;;;;;;;;;;;;;22.22;68.02;97597.08;602877;235;64956;-65
2023/09/07 07:30:10;;;;;;;;;;;;;;;22.23;67.53;97596.00;599988;236;65145;-65
2023/09/07 07:32:39;;;;;;;;;;;;;;;22.23;67.64;97593.33;599990;236;64609;-64
2023/09/07 07:35:07;;;;;;;;;;;;;;;22.25;67.47;97593.88;600006;236;64856;-64
2023/09/07 07:37:34;;;;;;;;;;;;;;;22.26;67.64;97603.53;600011;236;65125;-64
2023/09/07 07:40:04;;;;;;;;;;;;;;;22.27;67.57;97599.77;600157;235;45259;-66
2023/09/07 07:42:32;;;;;;;;;;;;;;;22.24;64.01;97594.95;603608;235;64454;-64
2023/09/07 07:44:59;;;;;;;;;;;;;;;22.25;63.94;97604.58;603221;235;66636;-67
2023/09/07 07:47:28;;;;;;;;;;;;;;;22.25;66.19;97603.78;603299;235;64634;-65
2023/09/07 07:49:56;;;;;;;;;;;;;;;22.26;68.58;97614.24;603378;235;66981;-64
2023/09/07 07:52:23;;;;;;;;;;;;;;;22.25;69.36;97601.91;603516;235;65809;-64
2023/09/07 07:54:54;;;;;;;;;;;;;;;22.24;69.79;97600.31;603514;235;65065;-64
2023/09/07 07:57:22;;;;;;;;;;;;;;;22.24;70.06;97602.19;603563;235;66683;-64
2023/09/07 07:59:49;;;;;;;;;;;;;;;22.22;70.03;97597.08;603587;235;62817;-64
2023/09/07 08:02:17;;;;;;;;;;;;;;;22.24;70.28;97599.51;603012;235;65259;-68
2023/09/07 08:04:45;;;;;;;;;;;;;;;22.22;70.12;97590.93;602969;235;68511;-64
2023/09/07 08:07:12;;;;;;;;;;;;;;;22.23;70.57;97589.84;602989;235;63056;-62
2023/09/07 08:09:40;;;;;;;;;;;;;;;22.22;70.92;97580.22;603343;235;67679;-69
2023/09/07 08:12:07;;;;;;;;;;;;;;;22.21;71.02;97592.81;603561;235;67080;-61
2023/09/07 08:14:36;;;;;;;;;;;;;;;22.21;71.22;97590.13;603520;235;62502;-60
2023/09/07 08:17:04;;;;;;;;;;;;;;;22.21;71.27;97587.45;605510;234;67653;-61
2023/09/07 08:19:32;;;;;;;;;;;;;;;22.21;67.87;97587.45;605640;234;67180;-62
2023/09/07 08:22:03;;;;;;;;;;;;;;;22.23;69.96;97579.94;605203;234;65804;-62
2023/09/07 08:24:30;;;;;;;;;;;;;;;22.24;70.20;97580.77;605722;234;67824;-63
2023/09/07 08:26:59;;;;;;;;;;;;;;;22.27;70.63;97582.91;605321;234;67049;-63
2023/09/07 08:29:31;;;;;;;;;;;;;;;22.27;70.15;97578.36;605794;234;65187;-64
2023/09/07 08:31:58;;;;;;;;;;;;;;;22.28;70.24;97577.27;605701;234;64999;-64
2023/09/07 08:34:25;;;;;;;;;;;;;;;22.29;70.32;97575.39;605920;234;67111;-63
2023/09/07 08:36:54;;;;;;;;;;;;;;;22.29;70.17;97581.58;605800;234;62767;-63
2023/09/07 08:39:23;;;;;;;;;;;;;;;22.30;70.05;97577.82;605652;234;64971;-67
2023/09/07 08:41:51;;;;;;;;;;;;;;;22.29;69.66;97578.91;605455;234;66995;-63
2023/09/07 08:44:23;;;;;;;;;;;;;;;22.29;67.40;97580.75;603660;234;62871;-63
2023/09/07 08:46:49;;;;;;;;;;;;;;;22.28;69.07;97579.95;605286;234;64871;-65
2023/09/07 08:49:20;;;;;;;;;;;;;;;22.28;69.34;97579.95;605529;234;64663;-64
2023/09/07 08:51:48;;;;;;;;;;;;;;;22.27;69.69;97583.71;605754;234;65096;-65
2023/09/07 08:54:16;;;;;;;;;;;;;;;22.27;69.83;97581.03;605403;234;67163;-65
2023/09/07 08:56:45;;;;;;;;;;;;;;;22.25;69.66;97577.81;605147;234;67023;-69
2023/09/07 08:59:13;;;;;;;;;;;;;;;22.27;69.72;97577.56;604702;232;62682;-69
2023/09/07 09:01:41;;;;;;;;;;;;;;;22.25;69.64;97566.30;601475;232;68439;-69
2023/09/07 09:04:08;;;;;;;;;;;;;;;22.25;69.68;97577.81;602828;234;67019;-69
2023/09/07 09:06:36;;;;;;;;;;;;;;;22.24;69.72;97573.53;601212;234;62690;-69
2023/09/07 09:09:06;;;;;;;;;;;;;;;22.24;69.78;97578.89;601757;234;67055;-69
2023/09/07 09:11:34;;;;;;;;;;;;;;;22.24;69.72;97573.53;601614;234;64785;-69
2023/09/07 09:14:03;;;;;;;;;;;;;;;22.24;69.73;97578.89;602722;234;64884;-69
2023/09/07 09:16:31;;;;;;;;;;;;;;;22.23;69.61;97571.91;604275;234;64958;-69
2023/09/07 09:18:58;;;;;;;;;;;;;;;22.24;69.75;97567.38;599141;237;65278;-69
2023/09/07 09:21:27;;;;;;;;;;;;;;;22.23;69.75;97571.11;598976;237;64924;-69
2023/09/07 09:23:55;;;;;;;;;;;;;;;22.24;69.71;97570.86;600930;234;67122;-68
2023/09/07 09:26:23;;;;;;;;;;;;;;;22.23;69.80;97563.88;602265;234;67027;-69
2023/09/07 09:28:53;;;;;;;;;;;;;;;22.24;69.70;97562.03;602390;234;62954;-68
2023/09/07 09:31:21;;;;;;;;;;;;;;;22.24;69.74;97559.35;602635;234;67092;-66
2023/09/07 09:33:55;;;;;;;;;;;;;;;22.23;69.71;97550.48;601693;234;64971;-70
2023/09/07 09:36:19;;;;;;;;;;;;;;;22.24;69.62;97556.67;600940;234;64962;-70
2023/09/07 09:38:50;;;;;;;;;;;;;;;22.24;69.67;97554.00;601720;234;64478;-70
2023/09/07 09:41:18;;;;;;;;;;;;;;;22.22;69.69;97556.92;601141;234;64991;-70
2023/09/07 09:43:51;;;;;;;;;;;;;;;22.23;69.75;97550.48;600274;234;62829;-70
2023/09/07 09:46:18;;;;;;;;;;;;;;;22.24;69.89;97543.29;602041;234;67289;-69
2023/09/07 09:48:46;;;;;;;;;;;;;;;22.24;69.67;97551.32;599695;234;67369;-68
2023/09/07 09:51:15;;;;;;;;;;;;;;;22.23;69.81;97563.08;601115;234;65366;-70
2023/09/07 09:53:43;;;;;;;;;;;;;;;22.23;70.14;97550.48;601487;234;64756;-69
2023/09/07 09:56:11;;;;;;;;;;;;;;;22.22;69.79;97551.57;602734;234;65011;-70
2023/09/07 09:58:38;;;;;;;;;;;;;;;22.23;69.77;97547.81;602118;234;62820;-67
2023/09/07 10:01:07;;;;;;;;;;;;;;;22.24;69.85;97554.00;600998;234;67284;-70
2023/09/07 10:03:36;;;;;;;;;;;;;;;22.23;69.90;97550.48;600395;234;65605;-68
2023/09/07 10:06:10;;;;;;;;;;;;;;;22.24;70.22;97544.09;600906;234;62881;-69
2023/09/07 10:08:37;;;;;;;;;;;;;;;22.23;70.09;97542.45;601777;234;64907;-70
2023/09/07 10:11:12;;;;;;;;;;;;;;;22.23;70.18;97539.78;602021;234;67265;-70
2023/09/07 10:13:39;;;;;;;;;;;;;;;22.24;70.81;97538.73;600711;234;62719;-70
2023/09/07 10:16:08;;;;;;;;;;;;;;;22.23;71.01;97529.08;599147;234;67132;-69
2023/09/07 10:18:37;;;;;;;;;;;;;;;22.23;71.17;97531.75;604738;234;67291;-69
2023/09/07 10:21:05;;;;;;;;;;;;;;;22.23;70.94;97529.08;602081;234;65071;-69
2023/09/07 10:23:40;;;;;;;;;;;;;;;22.23;71.00;97523.72;601363;234;67383;-69
2023/09/07 10:26:13;;;;;;;;;;;;;;;22.22;70.41;97524.80;603436;234;66891;-68
2023/09/07 10:28:40;;;;;;;;;;;;;;;22.22;70.52;97524.80;602929;234;64607;-69
2023/09/07 10:31:09;;;;;;;;;;;;;;;22.22;70.75;97527.48;601989;234;69229;-69
2023/09/07 10:33:37;;;;;;;;;;;;;;;22.22;70.34;97521.33;601518;234;67293;-69
2023/09/07 10:36:05;;;;;;;;;;;;;;;22.22;70.32;97521.33;602083;234;65347;-68
2023/09/07 10:38:36;;;;;;;;;;;;;;;22.22;70.34;97519.45;602697;234;65084;-68
2023/09/07 10:41:04;;;;;;;;;;;;;;;22.22;70.22;97506.06;601228;234;67002;-69
2023/09/07 10:43:33;;;;;;;;;;;;;;;22.22;70.21;97503.38;602522;234;65014;-69
2023/09/07 10:46:01;;;;;;;;;;;;;;;22.23;70.22;97517.56;598997;234;65772;-69
2023/09/07 10:48:31;;;;;;;;;;;;;;;22.22;70.00;97511.41;603519;234;65532;-70
2023/09/07 10:50:58;;;;;;;;;;;;;;;22.22;70.09;97506.06;602491;234;62818;-66
2023/09/07 10:53:27;;;;;;;;;;;;;;;22.23;70.24;97502.30;601975;234;64288;-68
2023/09/07 10:55:55;;;;;;;;;;;;;;;22.25;69.38;97502.84;600614;234;64548;-68
2023/09/07 10:58:30;;;;;;;;;;;;;;;22.26;69.82;97517.86;605249;234;65037;-68
2023/09/07 11:00:58;;;;;;;;;;;;;;;22.24;69.37;97508.48;601770;234;67389;-69
2023/09/07 11:03:26;;;;;;;;;;;;;;;22.24;69.64;97508.48;603480;234;66652;-68
2023/09/07 11:05:55;;;;;;;;;;;;;;;22.24;69.84;97498.58;601308;234;62941;-69
2023/09/07 11:08:23;;;;;;;;;;;;;;;22.23;69.99;97488.91;601988;234;66939;-69
2023/09/07 11:10:52;;;;;;;;;;;;;;;22.23;70.21;97499.63;603095;234;66775;-68
2023/09/07 11:13:19;;;;;;;;;;;;;;;22.23;69.88;97494.27;600836;234;65141;-68
2023/09/07 11:15:47;;;;;;;;;;;;;;;22.23;70.06;97491.59;605772;234;64789;-69
2023/09/07 11:18:16;;;;;;;;;;;;;;;22.24;69.91;97492.42;604489;234;67431;-69
2023/09/07 11:20:44;;;;;;;;;;;;;;;22.23;69.96;97496.14;602505;234;63846;-67
2023/09/07 11:23:11;;;;;;;;;;;;;;;22.24;70.38;97487.06;602169;234;64882;-66
2023/09/07 11:25:39;;;;;;;;;;;;;;;22.23;69.93;97488.11;601828;234;64858;-66
2023/09/07 11:28:07;;;;;;;;;;;;;;;22.22;69.72;97484.64;602813;234;62815;-68
2023/09/07 11:30:35;;;;;;;;;;;;;;;22.23;69.95;97486.23;601341;234;65050;-69
2023/09/07 11:33:03;;;;;;;;;;;;;;;22.23;70.06;97488.91;605631;234;68065;-69
2023/09/07 11:35:31;;;;;;;;;;;;;;;22.24;69.68;97481.71;601492;234;65239;-69
2023/09/07 11:38:00;;;;;;;;;;;;;;;22.23;70.37;97470.17;603655;234;65334;-68
2023/09/07 11:40:27;;;;;;;;;;;;;;;22.24;70.57;97471.00;600517;234;66831;-68
2023/09/07 11:42:55;;;;;;;;;;;;;;;22.23;70.35;97467.50;600748;234;66866;-68
2023/09/07 11:45:23;;;;;;;;;;;;;;;22.23;70.61;97474.73;602226;234;67178;-69
2023/09/07 11:47:50;;;;;;;;;;;;;;;22.23;70.55;97472.85;600106;234;67252;-70
2023/09/07 11:50:18;;;;;;;;;;;;;;;22.22;66.23;97462.42;601414;234;62757;-69
2023/09/07 11:52:46;;;;;;;;;;;;;;;22.26;69.22;97466.98;604468;234;66911;-67
2023/09/07 11:55:19;;;;;;;;;;;;;;;22.25;69.20;97464.56;599260;234;64962;-68
2023/09/07 11:57:46;;;;;;;;;;;;;;;22.24;69.39;97458.41;605734;234;64965;-67
2023/09/07 12:00:14;;;;;;;;;;;;;;;22.24;69.55;97457.62;605807;234;67135;-67
2023/09/07 12:02:42;;;;;;;;;;;;;;;22.24;69.51;97450.38;605823;234;67156;-68
2023/09/07 12:05:09;;;;;;;;;;;;;;;22.25;69.87;97456.53;605778;234;62745;-67
2023/09/07 12:07:37;;;;;;;;;;;;;;;22.24;69.81;97450.38;605764;234;65558;-67
2023/09/07 12:10:05;;;;;;;;;;;;;;;22.24;70.07;97453.06;605871;234;66923;-67
2023/09/07 12:12:32;;;;;;;;;;;;;;;22.25;70.24;97459.21;605678;234;65170;-67
2023/09/07 12:15:00;;;;;;;;;;;;;;;22.25;70.01;97446.63;605799;234;67339;-67
2023/09/07 12:17:27;;;;;;;;;;;;;;;22.24;69.64;97450.38;605919;234;66702;-69
2023/09/07 12:19:55;;;;;;;;;;;;;;;22.24;69.55;97442.34;605911;234;65026;-68
2023/09/07 12:22:22;;;;;;;;;;;;;;;22.24;69.32;97447.70;605967;234;67315;-64
2023/09/07 12:24:50;;;;;;;;;;;;;;;22.25;69.55;97438.59;605815;234;65839;-63
2023/09/07 12:27:18;;;;;;;;;;;;;;;22.25;69.54;97448.50;605825;234;64910;-63
2023/09/07 12:29:46;;;;;;;;;;;;;;;22.25;69.32;97432.44;605922;234;64796;-63
2023/09/07 12:32:13;;;;;;;;;;;;;;;22.25;69.36;97435.11;605862;234;64677;-63
2023/09/07 12:34:41;;;;;;;;;;;;;;;22.26;69.13;97440.22;605928;234;62897;-63
2023/09/07 12:37:08;;;;;;;;;;;;;;;22.26;69.23;97432.19;599426;234;68066;-63
2023/09/07 12:39:36;;;;;;;;;;;;;;;22.25;69.28;97438.59;605813;234;67209;-64
2023/09/07 12:42:03;;;;;;;;;;;;;;;22.30;66.98;97425.20;604872;234;65520;-63
2023/09/07 12:44:32;;;;;;;;;;;;;;;22.32;66.62;97431.10;604592;234;67226;-62
2023/09/07 12:46:59;;;;;;;;;;;;;;;22.35;67.49;97421.73;604640;234;67338;-63
2023/09/07 12:49:27;;;;;;;;;;;;;;;22.37;66.78;97433.78;604619;234;64879;-63
2023/09/07 12:51:54;;;;;;;;;;;;;;;22.39;67.48;97431.61;605250;234;67137;-63